x

Saxon Harbor, Wi (sxhw3) Weather Station

12:40pm - Sun 24th Jul 2016 All times are CDT. -5 hours from GMT.

  • Wind
    7mph, 14mph gusts
  • Air Temp 80°f
  • Sea Pressure 1008.1mb
  • Saxon Harbor, Wi
  • Saxon Harbor, Wi

More Historic Weather Station data

Upgrade to MSW Pro to gain access to the past 30 days of data for over 8000 Wavebouys and Weather Stations around the globe.

Join Pro

Comparision Forecast

View Surf forecast
   
Sun 07/24 12:40pm 7 14 mph 1008.1mb 80f
12:30pm 6 11 mph 1008.1mb 81f
12:20pm 3 17 mph 1008.1mb 80f
12:10pm 8 15 mph 1008.1mb 79f
12:00pm 8 15 mph 1007.8mb 80f
11:40am 7 13 mph 1007.8mb 79f
11:30am 7 13 mph 1007.8mb 78f
11:20am 9 16 mph 1007.8mb 77f
11:10am 10 15 mph 1007.8mb 78f
11:00am 6 15 mph 1007.8mb 78f
10:40am 9 13 mph 1007.8mb 78f
10:30am 9 14 mph 1007.5mb 77f
10:20am 5 9 mph 1007.8mb 77f
10:10am 3 10 mph 1007.8mb 78f
10:00am 8 15 mph 1007.5mb 77f
9:40am 7 15 mph 1007.5mb 76f
9:30am 10 15 mph 1007.5mb 76f
9:20am 8 13 mph 1007.1mb 76f
9:10am 10 14 mph 1007.5mb 75f
9:00am 9 16 mph 1007.5mb 75f
8:40am 9 14 mph 1007.5mb 74f
8:30am 8 14 mph 1007.5mb 74f
8:20am 10 14 mph 1007.5mb 73f
8:10am 8 14 mph 1007.5mb 73f
8:00am 7 11 mph 1007.5mb 73f
7:40am 8 10 mph 1007.5mb 72f
7:30am 7 9 mph 1007.5mb 72f
7:20am 2 6 mph 1007.5mb 71f
7:10am 2 3 mph 1007.5mb 70f
7:00am 3
mph
1007.5mb 70f
6:40am 2 5 mph 1007.5mb 70f
6:30am 3 10 mph 1007.5mb 70f
6:20am 7 16 mph 1007.1mb 70f
6:10am 13 16 mph 1006.8mb 71f
6:00am 6 13 mph 1006.4mb 72f
5:40am 6 10 mph 1006.1mb 71f
5:30am 8 13 mph 1005.8mb 71f
5:20am 10 18 mph 1006.1mb 72f
5:10am 22 32 mph 1005.4mb 73f
5:00am 10
mph
1004.1mb 73f
4:40am 16 30 mph 1003mb 71f
4:30am 11 17 mph 1006.1mb 72f
4:20am 8 15 mph 1007.8mb 73f
4:10am 8 15 mph 1007.8mb 73f
4:00am 9 14 mph 1007.5mb 73f
3:40am 7 10 mph 1008.1mb 72f
3:30am 6 11 mph 1008.1mb 72f
3:20am 6 10 mph 1008.1mb 72f
3:10am 7 11 mph 1008.1mb 72f
3:00am 6 10 mph 1007.8mb 72f
2:40am 5 7 mph 1007.8mb 72f
2:30am 5 10 mph 1007.8mb 72f
2:20am 6 9 mph 1008.1mb 72f
2:10am 5 11 mph 1008.1mb 73f
2:00am 5 13 mph 1008.1mb 73f
1:40am 6 10 mph 1008.8mb 73f
1:30am 8 11 mph 1008.8mb 73f
1:20am 7 10 mph 1008.5mb 72f
1:10am 8 13 mph 1008.8mb 73f
1:00am 8 11 mph 1008.8mb 73f
12:40am 5 9 mph 1008.8mb 72f
12:30am 6 8 mph 1009.1mb 72f
12:20am 5 8 mph 1009.5mb 72f
12:10am 5 8 mph 1009.5mb 72f
12:00am 3 9 mph 1009.5mb 73f
Sat 07/23 11:40pm 3 10 mph 1009.5mb 73f
11:30pm 3 8 mph 1009.5mb 73f
11:20pm 5 9 mph 1009.5mb 73f
11:10pm 5 8 mph 1009.1mb 74f
11:00pm 5 7 mph 1009.1mb 73f
10:40pm 2 5 mph 1009.5mb 71f
10:30pm  -  3 mph 1009.5mb 70f
10:20pm  -  2 mph 1009.5mb 70f
10:10pm  -  1 mph 1009.8mb 70f
10:00pm  -  1 mph 1009.8mb 70f
9:40pm  -  1 mph 1009.8mb 70f
9:30pm 1 3 mph 1010.2mb 70f
9:20pm 2
mph
1010.2mb 70f
9:10pm 2 3 mph 1009.8mb 70f
8:40pm 2
mph
1010.2mb 70f
8:30pm 1 2 mph 1010.2mb 70f
8:20pm 1 3 mph 1010.5mb 70f
8:10pm 3
mph
1010.5mb 70f
8:00pm 2
mph
1010.2mb 70f
7:40pm 3 5 mph 1010.5mb 70f
7:30pm 5 6 mph 1010.5mb 70f
7:20pm 2
mph
1010.2mb 70f
7:10pm 2
mph
1010.5mb 70f
7:00pm 2
mph
1010.5mb 70f
6:40pm 2 3 mph 1010.5mb 70f
6:30pm 2 3 mph 1010.8mb 70f
6:20pm 3 5 mph 1010.8mb 70f
6:10pm 3 5 mph 1010.8mb 70f
6:00pm 2 6 mph 1011.2mb 71f
5:40pm 5 8 mph 1011.5mb 70f
5:30pm 7 8 mph 1011.5mb 70f
5:20pm 7 9 mph 1011.5mb 71f
5:10pm 5 6 mph 1011.5mb 71f
5:00pm 5 7 mph 1011.9mb 71f
4:40pm 5 6 mph 1011.9mb 72f
4:30pm 2 3 mph 1011.9mb 71f
4:20pm 2 5 mph 1011.9mb 71f
4:10pm 2 3 mph 1011.9mb 71f
4:00pm 2
mph
1011.9mb 71f
3:40pm 2 3 mph 1011.9mb 71f
3:30pm 2 3 mph 1011.9mb 72f
3:20pm 2 3 mph 1012.2mb 72f
3:10pm 3
mph
1012.2mb 71f
3:00pm 2 5 mph 1012.2mb 72f
2:40pm 2 3 mph 1012.5mb 72f
2:30pm 2
mph
1012.9mb 72f
2:20pm 2
mph
1012.9mb 71f
2:10pm 2 3 mph 1013.2mb 71f
2:00pm 2 3 mph 1013.2mb 71f
1:40pm 3 5 mph 1013.2mb 70f
1:30pm 3 6 mph 1013.2mb 71f
1:20pm 5 6 mph 1013.2mb 71f
1:10pm 3 5 mph 1013.5mb 71f
1:00pm 2 5 mph 1013.9mb 71f
12:50pm 2 3 mph 1014.2mb 71f
12:40pm 2 6 mph 1014.2mb 71f
12:30pm 6 7 mph 1014.2mb 71f
12:20pm 3 7 mph 1014.9mb 71f
12:10pm 5 6 mph 1014.6mb 71f
12:00pm 6
mph
1014.9mb 71f
11:50am 5 6 mph 1014.9mb 72f
11:40am 3 8 mph 1014.6mb 72f
11:30am 6 9 mph 1013.9mb 73f
11:20am 2 3 mph 1013.5mb 73f
11:10am 2 3 mph 1013.5mb 72f
11:00am 2 3 mph 1013.5mb 72f
10:50am 2 3 mph 1013.5mb 72f
10:40am 3
mph
1013.5mb 73f
10:30am 2
mph
1013.5mb 73f
10:20am 2 3 mph 1013.9mb 73f
10:10am 3 5 mph 1014.2mb 72f
10:00am 3 6 mph 1014.6mb 72f
9:50am 5
mph
1014.6mb 72f
9:40am 3
mph
1014.6mb 71f
9:30am 1 2 mph 1014.9mb 71f
9:20am 2
mph
1015.2mb 71f
9:10am 1 2 mph 1015.2mb 71f
9:00am  -  1 mph 1015.2mb 71f
8:40am 1 2 mph 1015.6mb 72f
8:30am 2 3 mph 1015.6mb 71f
8:20am 1 2 mph 1015.6mb 71f
8:10am  -  1 mph 1015.6mb 71f
8:00am 1 2 mph 1015.6mb 70f
7:50am 1 2 mph 1015.6mb 71f
7:40am  -  1 mph 1015.6mb 69f
7:30am  -  2 mph 1015.6mb 68f
7:20am 2 7 mph 1015.6mb 66f
7:10am 5 8 mph 1015.6mb 65f
7:00am 7 9 mph 1015.6mb 65f
6:50am 7 9 mph 1015.2mb 64f
6:40am 6 10 mph 1015.6mb 64f
6:30am 7 10 mph 1015.6mb 64f
6:20am 7 9 mph 1015.6mb 64f
6:10am 7 11 mph 1015.6mb 64f
6:00am 8 10 mph 1015.2mb 64f
5:50am 7 8 mph 1015.2mb 64f
5:40am 5 6 mph 1015.2mb 63f
5:30am 5 7 mph 1015.6mb 64f
5:20am 6 7 mph 1015.6mb 64f
5:10am 5 8 mph 1015.6mb 64f
5:00am 6 9 mph 1015.6mb 64f
4:50am 6 8 mph 1015.6mb 64f
4:40am 6 7 mph 1015.6mb 65f
4:30am 6 8 mph 1015.6mb 64f
4:20am 5 8 mph 1015.6mb 65f
4:10am 6 7 mph 1015.6mb 65f
4:00am 6
mph
1015.6mb 65f
3:50am 6 7 mph 1015.6mb 65f
3:40am 6 7 mph 1015.6mb 65f
3:30am 6 7 mph 1015.6mb 65f
3:20am 5 8 mph 1015.2mb 65f
3:10am 5 7 mph 1015.6mb 66f
3:00am 6 8 mph 1015.2mb 66f
2:50am 6 7 mph 1015.2mb 66f
2:40am 5 7 mph 1015.2mb 66f
2:30am 5 7 mph 1015.2mb 66f
2:20am 6
mph
1015.2mb 66f
2:10am 6 7 mph 1015.2mb 67f
2:00am 6 7 mph 1015.2mb 67f
1:50am 5 7 mph 1015.2mb 67f
1:40am 6 7 mph 1015.2mb 67f
1:30am 6 7 mph 1015.2mb 67f
1:20am 5 6 mph 1015.2mb 67f
1:10am 5 7 mph 1014.9mb 67f
1:00am 5 7 mph 1014.9mb 68f
12:50am 5 7 mph 1014.9mb 67f
12:40am 5 6 mph 1014.9mb 68f
12:30am 5 7 mph 1014.9mb 68f
12:20am 7 8 mph 1014.9mb 69f
12:10am 6 7 mph 1014.9mb 69f
12:00am 6 7 mph 1014.9mb 69f
Fri 07/22 11:50pm 5 7 mph 1014.6mb 69f
11:40pm 6 7 mph 1014.6mb 69f
11:30pm 6 7 mph 1014.6mb 69f
11:20pm 5 6 mph 1014.6mb 69f
11:10pm 3 6 mph 1014.6mb 69f
11:00pm 3 5 mph 1014.6mb 69f
10:50pm 2 3 mph 1014.6mb 70f
10:40pm 2 5 mph 1014.2mb 71f
10:30pm 5 7 mph 1014.2mb 71f
10:20pm 5 7 mph 1014.2mb 71f
10:10pm 3 5 mph 1014.2mb 72f
10:00pm 5 6 mph 1014.2mb 73f
9:50pm 3 6 mph 1013.9mb 73f
9:40pm 5 7 mph 1013.5mb 74f
9:30pm 3 6 mph 1013.5mb 73f
9:20pm 5 6 mph 1013.2mb 74f
9:10pm 5 7 mph 1013.2mb 75f
9:00pm 3 6 mph 1013.2mb 74f
8:50pm 3 5 mph 1013.2mb 75f
7:40pm 2 3 mph 1013.9mb 80f
7:30pm 2 3 mph 1013.9mb 81f
7:20pm 1 2 mph 1013.9mb 82f
7:10pm 2
mph
1013.9mb 82f
7:00pm 2
mph
1014.2mb 82f
6:50pm  -  2 mph 1014.2mb 85f
6:40pm 1 2 mph 1014.2mb 87f
6:30pm  -  3 mph 1014.2mb 89f
6:20pm  -  2 mph 1014.2mb 85f
6:10pm  -  3 mph 1014.2mb 85f
6:00pm  -  2 mph 1014.2mb 83f
5:50pm 2 3 mph 1014.2mb 83f
5:40pm 1 6 mph 1014.2mb 84f
5:30pm 2 3 mph 1014.2mb 86f
5:20pm 2 3 mph 1014.2mb 86f
5:10pm 1 5 mph 1014.6mb 85f
5:00pm 2 5 mph 1014.6mb 85f
4:50pm 1 5 mph 1014.6mb 84f
4:40pm  -  5 mph 1014.6mb 84f
4:30pm 3 5 mph 1014.6mb 83f
4:20pm 5 7 mph 1014.6mb 81f
4:10pm 2 6 mph 1014.6mb 83f
4:00pm 3 6 mph 1014.6mb 84f
3:50pm 3 7 mph 1014.2mb 83f
3:40pm 2 9 mph 1014.2mb 82f
3:30pm 2 7 mph 1014.6mb 83f
3:20pm 6 11 mph 1014.2mb 84f
3:10pm 8 13 mph 1014.6mb 85f
3:00pm 3 9 mph 1014.6mb 82f
2:50pm 7 10 mph 1014.6mb 86f
2:40pm 7 15 mph 1014.6mb 88f
2:30pm 9 13 mph 1014.6mb 88f
2:20pm 7 13 mph 1014.9mb 88f
2:10pm 9 15 mph 1014.9mb 89f
2:00pm 6 14 mph 1014.9mb 88f
1:50pm 9 14 mph 1014.9mb 88f
1:40pm 7 10 mph 1014.9mb 88f
1:30pm 8 13 mph 1014.9mb 88f
1:20pm 8 11 mph 1014.9mb 88f
1:10pm 5 13 mph 1014.9mb 87f
1:00pm 8 14 mph 1014.9mb 87f
12:50pm 10 11 mph 1014.9mb 87f
9:40am 6 8 mph 1014.6mb 80f
9:30am 6 9 mph 1014.6mb 79f
9:20am 7 10 mph 1014.6mb 78f
9:10am 7 10 mph 1014.6mb 78f
9:00am 7 9 mph 1014.6mb 77f
8:50am 7 9 mph 1014.6mb 77f
8:40am 6 10 mph 1014.6mb 76f
8:30am 7 10 mph 1014.6mb 76f
8:20am 6 9 mph 1014.9mb 75f
8:10am 7 10 mph 1014.9mb 74f
8:00am 6 9 mph 1014.9mb 73f
7:50am 6 8 mph 1014.9mb 72f
7:40am 6 8 mph 1014.6mb 71f
7:30am 6 8 mph 1014.6mb 70f
7:20am 6 8 mph 1014.6mb 69f
7:10am 6 8 mph 1014.6mb 67f
7:00am 7 9 mph 1014.6mb 67f
6:50am 7 10 mph 1014.6mb 67f
6:40am 7 9 mph 1014.6mb 66f
6:30am 6 10 mph 1014.6mb 66f
6:20am 7 10 mph 1014.6mb 66f
6:10am 8 11 mph 1014.6mb 67f
6:00am 7 9 mph 1014.6mb 65f
5:50am 5 6 mph 1014.6mb 64f
5:40am 5 8 mph 1014.6mb 64f
5:30am 5 7 mph 1014.6mb 64f
5:20am 5 6 mph 1014.2mb 64f
5:10am 5 6 mph 1014.2mb 64f
5:00am 5 8 mph 1014.6mb 65f
4:50am 5 7 mph 1014.6mb 65f
4:40am 5 7 mph 1014.2mb 65f
4:30am 6 7 mph 1014.2mb 65f
4:20am 6 7 mph 1014.2mb 65f
4:10am 5 7 mph 1014.2mb 65f
4:00am 5 7 mph 1013.9mb 65f
3:50am 6 7 mph 1013.9mb 65f
3:40am 6 7 mph 1014.2mb 65f
3:30am 6 7 mph 1013.9mb 65f
3:20am 3 7 mph 1013.5mb 65f
3:10am 5 7 mph 1013.5mb 65f
3:00am 5 7 mph 1013.5mb 65f
2:50am 5 8 mph 1013.9mb 66f
2:40am 6 7 mph 1013.9mb 66f
2:30am 6 8 mph 1013.9mb 66f
2:20am 6 8 mph 1013.9mb 66f
2:10am 6 8 mph 1013.9mb 66f
2:00am 6 8 mph 1013.9mb 67f
1:50am 7 9 mph 1013.9mb 67f
1:40am 7 10 mph 1013.9mb 68f
1:30am 6 8 mph 1013.9mb 67f
1:20am 7 9 mph 1013.5mb 68f
1:10am 6 9 mph 1013.5mb 67f
1:00am 6 7 mph 1013.5mb 67f
12:50am 6 7 mph 1013.5mb 67f
12:40am 6 9 mph 1013.5mb 69f
12:30am 5 8 mph 1013.5mb 68f
12:20am 6 7 mph 1013.5mb 68f
12:10am 2 5 mph 1013.2mb 69f
12:00am 2 3 mph 1013.2mb 69f
Thu 07/21 11:50pm 2 6 mph 1013.2mb 69f
11:40pm 5 7 mph 1013.2mb 70f
11:30pm 6 8 mph 1013.2mb 70f
11:20pm 8 9 mph 1012.9mb 72f
11:10pm 7 8 mph 1012.9mb 72f
11:00pm 6 9 mph 1012.9mb 72f
10:50pm 7 10 mph 1012.5mb 74f
10:40pm 7 10 mph 1012.5mb 72f
10:30pm 7 9 mph 1012.5mb 72f
10:20pm 7 8 mph 1012.5mb 72f
10:10pm 7 9 mph 1012.2mb 73f
10:00pm 7 10 mph 1012.2mb 74f
9:50pm 8 10 mph 1012.2mb 74f
9:40pm 7 8 mph 1012.2mb 73f
9:30pm 6 8 mph 1011.9mb 73f
9:20pm 6 7 mph 1011.9mb 74f
9:10pm 6 7 mph 1011.9mb 74f
9:00pm 7 9 mph 1011.5mb 75f
8:50pm 6 7 mph 1011.5mb 75f
8:40pm 5 7 mph 1011.2mb 76f
8:30pm 5 6 mph 1011.2mb 77f
8:20pm 5 7 mph 1011.2mb 78f
8:10pm 5 7 mph 1011.2mb 79f
8:00pm 5 7 mph 1011.2mb 79f
7:50pm 5 6 mph 1011.2mb 80f
6:40pm 3 5 mph 1011.2mb 87f
6:30pm 3 7 mph 1011.2mb 89f
6:20pm 3 8 mph 1011.2mb 89f
6:10pm 3 10 mph 1011.2mb 89f
6:00pm 6 8 mph 1010.8mb 89f
5:40pm 3 7 mph 1010.8mb 88f
5:30pm 1 3 mph 1010.8mb 85f
5:20pm 2 6 mph 1010.8mb 82f
5:10pm 5 7 mph 1010.8mb 81f
5:00pm 5 7 mph 1010.5mb 81f
4:50pm 6 11 mph 1010.5mb 81f
4:40pm 6 13 mph 1010.5mb 82f
4:30pm 8 10 mph 1010.5mb 85f
4:20pm 7 11 mph 1010.5mb 88f
4:10pm 6 13 mph 1010.8mb 87f
4:00pm 10 15 mph 1010.8mb 88f
3:50pm 9 15 mph 1010.8mb 87f
3:40pm 9 14 mph 1011.2mb 88f
3:30pm 10 15 mph 1011.2mb 88f
3:20pm 7 16 mph 1011.2mb 88f
3:10pm 9 15 mph 1011.2mb 89f
3:00pm 10 17 mph 1011.2mb 88f
2:50pm 9 14 mph 1011.2mb 87f
2:40pm 7 11 mph 1011.2mb 87f
2:30pm 8 16 mph 1011.2mb 88f
2:20pm 10 14 mph 1011.2mb 87f
2:10pm 8 15 mph 1011.2mb 85f
2:00pm 10 16 mph 1011.2mb 85f
1:50pm 7 16 mph 1011.2mb 87f
1:40pm 8 15 mph 1011.2mb 87f
1:30pm 11 15 mph 1011.2mb 87f
1:20pm 8 20 mph 1011.2mb 87f
1:10pm 9 16 mph 1011.2mb 86f
1:00pm 13 18 mph 1011.2mb 86f
12:50pm 10 23 mph 1011.2mb 86f
11:40am 8 18 mph 1010.8mb 84f
11:30am 9 14 mph 1010.5mb 83f
11:20am 11 23 mph 1010.5mb 83f
11:10am 10 23 mph 1010.5mb 83f
11:00am 15 20 mph 1010.2mb 83f
10:50am 11 16 mph 1010.2mb 82f
10:40am 10 18 mph 1010.2mb 81f
10:30am 9 20 mph 1009.8mb 81f
10:20am 13 18 mph 1009.8mb 80f
10:10am 11 23 mph 1009.8mb 79f
10:00am 11 18 mph 1009.8mb 79f
9:50am 13 16 mph 1009.8mb 78f
9:40am 13 16 mph 1009.5mb 77f
9:30am 10 17 mph 1009.1mb 76f
9:20am 11 17 mph 1009.1mb 75f
9:10am 13 17 mph 1009.1mb 75f
9:00am 11 17 mph 1009.1mb 75f
8:50am 13 21 mph 1009.1mb 75f
8:40am 14 18 mph 1009.1mb 74f
8:30am 10 16 mph 1009.1mb 74f
8:20am 9 15 mph 1009.5mb 74f
8:10am 7 13 mph 1009.5mb 73f
8:00am 7 10 mph 1009.1mb 72f
7:50am 8 13 mph 1009.8mb 71f
7:40am 7 11 mph 1009.5mb 70f
7:30am 5 7 mph 1010.5mb 68f
7:21am 3
mph
1010.5mb 66f
7:20am 3 14 mph 1010.5mb 66f
7:10am 13 25 mph 1010.5mb 71f
7:00am 25 34 mph 1010.5mb 71f
6:58am 17 32 mph 1009.8mb 71f
6:50am 3 20 mph 1007.5mb 72f
6:40am 11 16 mph 1009.1mb 70f
6:30am 6 17 mph 1010.8mb 69f
6:21am 11 18 mph 1010.8mb 69f
6:20am 11 18 mph 1010.5mb 69f
6:10am 9 14 mph 1010.8mb 69f
6:00am 8 11 mph 1011.9mb 69f
5:50am 7 10 mph 1012.2mb 69f
5:40am 5 8 mph 1013.2mb -
5:30am 5 13 mph 1013.9mb -
5:20am 8
mph
1013.9mb -
5:10am 17 40 mph 1013.9mb -
5:00am 30
mph
1012.9mb -
4:50am 23
mph
1014.2mb 80f
4:40am 11 15 mph 1010.8mb 80f
4:30am 10 16 mph 1009.8mb 81f
4:20am 8 21 mph 1009.5mb 81f
4:10am 8 17 mph 1010.2mb 81f
4:00am 9 18 mph 1010.5mb 81f
3:50am 11 16 mph 1010.5mb 82f
3:40am 10 15 mph 1010.5mb 81f
3:30am 9 11 mph 1010.5mb 81f
3:20am 7 13 mph 1010.5mb 81f
3:10am 9 14 mph 1010.5mb 81f
3:00am 9 16 mph 1010.2mb 81f
2:50am 6 13 mph 1010.5mb 81f
2:40am 6 15 mph 1010.5mb 81f
2:30am 9 15 mph 1010.5mb 82f
2:20am 9 17 mph 1010.8mb 82f
2:10am 7 11 mph 1010.8mb 81f
2:00am 8 16 mph 1011.2mb 82f
12:40am 8 15 mph 1012.2mb 81f
12:30am 9 15 mph 1012.2mb 81f
12:20am 9 15 mph 1012.2mb 81f
12:10am 8 16 mph 1011.9mb 81f
12:00am 10 15 mph 1012.2mb 81f
Wed 07/20 11:50pm 7 15 mph 1012.5mb 81f
11:40pm 9 15 mph 1012.5mb 81f
11:30pm 8 16 mph 1012.2mb 81f
11:20pm 9 16 mph 1012.5mb 81f
11:10pm 6 11 mph 1012.2mb 81f
11:00pm 9 16 mph 1012.2mb 81f
10:50pm 9 17 mph 1012.2mb 82f
10:40pm 11 20 mph 1012.2mb 82f
10:30pm 9 15 mph 1012.5mb 82f
10:20pm 8 13 mph 1012.5mb 82f
10:10pm 7 13 mph 1012.9mb 81f
10:00pm 7 13 mph 1012.9mb 82f
9:50pm 7 10 mph 1012.5mb 81f
9:40pm 8 13 mph 1012.5mb 82f
9:30pm 7 15 mph 1012.5mb 82f
9:20pm 8 16 mph 1012.2mb 82f
9:10pm 7 15 mph 1012.5mb 83f
9:00pm 13 18 mph 1012.2mb 83f
8:50pm 11 18 mph 1012.2mb 84f
7:40pm 11 18 mph 1012.9mb 87f
7:30pm 7 11 mph 1012.9mb 87f
7:20pm 8 17 mph 1012.9mb 87f
7:10pm 10 17 mph 1012.9mb 87f
7:00pm 10 17 mph 1013.2mb 88f